Time;durP1;ratioP1;P1;durP2;ratioP2;P2;SDS_P1;SDS_P2;PMS_P1;PMS_P2;Temp;Humidity;BMP_temperature;BMP_pressure;BME280_temperature;BME280_humidity;BME280_pressure;Samples;Min_cycle;Max_cycle;Signal;HPM_P1;HPM_P2
2022/12/17 13:06:43;;;;;;;9.38;5.50;;;;;;;19.45;38.77;97535.44;10433179;28;20045;-83
2022/12/17 13:12:02;;;;;;;6.82;4.90;;;;;;;19.48;38.77;97532.16;10430918;28;20064;-82
2022/12/17 13:17:32;;;;;;;8.65;5.65;;;;;;;19.50;39.15;97540.75;10408328;28;20100;-82
2022/12/17 13:23:14;;;;;;;8.82;5.10;;;;;;;19.53;39.62;97540.13;10403611;28;20053;-82
2022/12/17 13:28:34;;;;;;;5.57;4.68;;;;;;;19.56;39.74;97544.09;10414137;28;20053;-81
2022/12/17 13:34:04;;;;;;;7.90;4.80;;;;;;;19.59;39.87;97548.13;10429254;28;20107;-82
2022/12/17 13:39:48;;;;;;;6.47;4.70;;;;;;;19.60;40.22;97544.31;10418386;28;20045;-81
2022/12/17 13:45:14;;;;;;;6.05;4.22;;;;;;;19.63;40.75;97568.03;10432444;28;20045;-82
2022/12/17 13:50:35;;;;;;;5.60;4.78;;;;;;;19.66;40.85;97576.31;10418190;28;20057;-82
2022/12/17 13:55:58;;;;;;;5.88;4.50;;;;;;;19.68;40.96;97584.09;10423681;28;20041;-82
2022/12/17 14:01:17;;;;;;;4.70;4.28;;;;;;;19.70;41.20;97587.34;10452734;28;20044;-81
2022/12/17 14:06:37;;;;;;;7.35;5.80;;;;;;;19.70;38.06;97600.84;10432156;28;20056;-82
2022/12/17 14:17:37;;;;;;;9.55;6.50;;;;;;;19.75;40.01;97606.94;10449279;28;20052;-82
2022/12/17 14:23:04;;;;;;;10.80;6.18;;;;;;;19.78;40.25;97621.78;10440485;28;20053;-82
2022/12/17 14:28:33;;;;;;;8.23;6.35;;;;;;;19.81;38.84;97634.66;10423184;28;20041;-81
2022/12/17 14:34:06;;;;;;;9.53;5.10;;;;;;;19.84;40.10;97636.78;10424599;28;20567;-82
2022/12/17 14:39:28;;;;;;;8.93;4.93;;;;;;;19.87;40.39;97638.84;10411310;28;20061;-83
2022/12/17 14:44:54;;;;;;;9.27;5.40;;;;;;;19.88;40.58;97645.88;10424682;28;20057;-83
2022/12/17 14:50:16;;;;;;;8.55;5.35;;;;;;;19.90;40.92;97657.19;10411007;28;20492;-83
2022/12/17 14:55:56;;;;;;;8.95;5.50;;;;;;;19.92;41.20;97667.69;10474697;28;20044;-83
2022/12/17 15:01:16;;;;;;;8.35;5.68;;;;;;;19.91;41.02;97661.47;10401469;28;20527;-84
2022/12/17 15:06:36;;;;;;;8.85;5.20;;;;;;;19.92;41.09;97670.41;10390125;28;20090;-84
2022/12/17 15:11:56;;;;;;;9.13;5.55;;;;;;;19.93;41.37;97686.34;10411503;28;20101;-83
2022/12/17 15:17:16;;;;;;;7.28;5.40;;;;;;;19.92;40.75;97676.59;10432551;28;20390;-83
2022/12/17 15:22:36;;;;;;;8.45;5.43;;;;;;;19.92;40.96;97682.00;10413383;28;20052;-83
2022/12/17 15:27:56;;;;;;;8.15;5.53;;;;;;;19.94;41.75;97693.31;10423824;28;20107;-83
2022/12/17 15:33:16;;;;;;;8.63;5.38;;;;;;;19.95;41.82;97697.66;10427318;28;20139;-83
2022/12/17 15:38:35;;;;;;;7.28;5.18;;;;;;;19.97;42.28;97699.22;10426423;28;20102;-83
2022/12/17 15:43:55;;;;;;;10.10;5.57;;;;;;;19.98;42.54;97711.66;10465732;28;20063;-82
2022/12/17 15:49:15;;;;;;;6.88;4.78;;;;;;;20.01;42.64;97705.63;10407616;28;20053;-82
2022/12/17 15:54:34;;;;;;;9.98;5.10;;;;;;;20.01;42.58;97716.44;10419641;28;20455;-82
2022/12/17 15:59:53;;;;;;;10.55;4.97;;;;;;;20.02;42.99;97728.88;10452175;28;20041;-81
2022/12/17 16:05:13;;;;;;;8.57;4.35;;;;;;;20.04;42.98;97721.25;10448290;28;20075;-82
2022/12/17 16:10:33;;;;;;;8.40;5.07;;;;;;;20.07;43.42;97728.75;10439658;28;20060;-82
2022/12/17 16:15:56;;;;;;;7.30;4.78;;;;;;;20.07;43.52;97734.97;10422190;28;20045;-79
2022/12/17 16:21:16;;;;;;;8.45;4.40;;;;;;;20.10;43.85;97730.84;10419825;28;20428;-79
2022/12/17 16:26:36;;;;;;;8.82;4.82;;;;;;;20.12;43.77;97728.63;10417368;28;20053;-80
2022/12/17 16:31:56;;;;;;;8.30;4.60;;;;;;;20.14;43.84;97729.94;10425286;28;20555;-80
2022/12/17 16:37:16;;;;;;;9.15;4.72;;;;;;;20.16;44.13;97740.44;10405622;28;20069;-79
2022/12/17 16:42:35;;;;;;;6.03;4.32;;;;;;;20.19;43.89;97737.16;10428060;28;20054;-79
2022/12/17 16:47:55;;;;;;;10.00;4.35;;;;;;;20.20;43.72;97749.56;10388791;28;20061;-79
2022/12/17 16:53:15;;;;;;;5.80;4.40;;;;;;;20.22;43.87;97750.03;10413665;28;20057;-79
2022/12/17 16:58:35;;;;;;;7.63;4.10;;;;;;;20.23;43.71;97746.25;10443729;28;20052;-79
2022/12/17 17:03:55;;;;;;;9.52;4.15;;;;;;;20.26;43.60;97744.81;10426214;28;20049;-79
2022/12/17 17:09:16;;;;;;;5.00;4.07;;;;;;;20.28;44.07;97748.03;10391380;28;20132;-80
2022/12/17 17:14:35;;;;;;;8.02;4.18;;;;;;;20.29;44.01;97761.25;10402062;28;20053;-82
2022/12/17 17:19:55;;;;;;;7.35;4.00;;;;;;;20.31;43.70;97769.88;10430579;28;20053;-79
2022/12/17 17:25:14;;;;;;;7.88;4.00;;;;;;;20.31;43.91;97780.69;10431553;28;20108;-79
2022/12/17 17:30:34;;;;;;;7.13;4.20;;;;;;;20.33;43.95;97778.47;10405235;28;20103;-79
2022/12/17 17:35:53;;;;;;;6.32;3.95;;;;;;;20.37;44.03;97775.19;10422221;28;20045;-79
2022/12/17 17:41:16;;;;;;;5.55;3.85;;;;;;;20.38;43.93;97779.47;10461360;28;20451;-79
2022/12/17 17:46:36;;;;;;;5.72;4.00;;;;;;;20.40;43.69;97783.47;10439557;28;20049;-79
2022/12/17 17:51:56;;;;;;;12.65;4.60;;;;;;;20.42;43.94;97802.09;10460786;28;20056;-79
2022/12/17 17:57:15;;;;;;;7.90;4.82;;;;;;;20.44;45.14;97806.09;10429986;28;20412;-79
2022/12/17 18:02:35;;;;;;;11.48;6.22;;;;;;;20.47;46.19;97815.53;10430259;28;20053;-79
2022/12/17 18:07:55;;;;;;;16.52;7.57;;;;;;;20.50;47.20;97825.72;10393274;28;20087;-79
2022/12/17 18:18:55;;;;;;;8.82;5.43;;;;;;;20.54;48.42;97821.31;10428058;28;20056;-80
2022/12/17 18:24:22;;;;;;;6.93;5.00;;;;;;;20.56;48.46;97827.22;10446896;28;20053;-79
2022/12/17 18:29:42;;;;;;;16.02;6.18;;;;;;;20.58;48.19;97830.44;10442878;28;20107;-79
2022/12/17 18:35:01;;;;;;;21.70;9.13;;;;;;;20.59;48.07;97845.59;10428335;28;20054;-79
2022/12/17 18:40:20;;;;;;;20.23;6.95;;;;;;;20.60;47.97;97846.41;10456186;28;20053;-79
2022/12/17 18:45:40;;;;;;;16.33;6.82;;;;;;;20.61;47.77;97853.44;10444989;28;20095;-79
2022/12/17 18:51:04;;;;;;;15.85;6.30;;;;;;;20.63;47.57;97862.03;10431605;28;20060;-78
2022/12/17 18:56:25;;;;;;;13.65;5.78;;;;;;;20.63;48.00;97862.84;10448508;28;20099;-78
2022/12/17 19:01:45;;;;;;;11.60;5.68;;;;;;;20.62;48.23;97868.53;10427572;28;20519;-78
2022/12/17 19:07:05;;;;;;;12.88;5.82;;;;;;;20.62;48.10;97879.38;10437994;28;20103;-79
2022/12/17 19:12:24;;;;;;;13.65;5.65;;;;;;;20.62;46.83;97876.66;10411320;28;20087;-78
2022/12/17 19:17:44;;;;;;;11.65;5.88;;;;;;;20.61;47.08;97885.91;10418680;28;20041;-78
2022/12/17 19:23:03;;;;;;;14.25;5.60;;;;;;;20.58;46.98;97884.59;10419753;28;20553;-78
2022/12/17 19:28:23;;;;;;;10.60;5.70;;;;;;;20.57;46.41;97891.09;10426133;28;20045;-78
2022/12/17 19:33:43;;;;;;;10.75;5.10;;;;;;;20.56;46.15;97892.19;10426666;28;20049;-78
2022/12/17 19:39:05;;;;;;;8.13;5.00;;;;;;;20.54;46.11;97897.94;10443960;28;20472;-78
2022/12/17 19:44:26;;;;;;;10.57;5.43;;;;;;;20.54;46.35;97899.81;10437643;28;20099;-81
2022/12/17 19:49:46;;;;;;;11.27;5.25;;;;;;;20.54;46.12;97902.53;10391947;28;20064;-77
2022/12/17 19:55:06;;;;;;;12.65;5.25;;;;;;;20.52;45.83;97913.69;10427108;28;20094;-79
2022/12/17 20:00:26;;;;;;;10.80;4.93;;;;;;;20.51;45.82;97911.25;10432874;28;20412;-77
2022/12/17 20:05:46;;;;;;;9.85;5.10;;;;;;;20.49;45.93;97919.69;10424421;28;20651;-78
2022/12/17 20:11:31;;;;;;;10.80;4.88;;;;;;;20.50;45.97;97928.59;10408473;28;20052;-77
2022/12/17 20:16:56;;;;;;;10.40;4.88;;;;;;;20.48;45.59;97936.22;10425737;28;20055;-78
2022/12/17 20:22:15;;;;;;;8.98;4.97;;;;;;;20.45;45.68;97932.22;10425355;28;20053;-78
2022/12/17 20:27:37;;;;;;;8.85;4.57;;;;;;;20.45;45.97;97936.84;10429681;28;20401;-78
2022/12/17 20:32:57;;;;;;;6.63;4.40;;;;;;;20.44;45.44;97948.75;10419270;28;20386;-78
2022/12/17 20:38:17;;;;;;;9.18;4.50;;;;;;;20.41;45.38;97952.88;10414599;28;20485;-78
2022/12/17 20:43:37;;;;;;;8.93;4.47;;;;;;;20.41;45.58;97957.50;10417968;28;20052;-78
2022/12/17 20:48:59;;;;;;;9.05;4.85;;;;;;;20.39;45.72;97959.72;10422104;28;20052;-78
2022/12/17 20:54:19;;;;;;;8.60;4.32;;;;;;;20.38;45.69;97952.69;10422131;28;20435;-78
2022/12/17 20:59:38;;;;;;;10.23;4.38;;;;;;;20.35;45.67;97960.28;10433673;28;20045;-78
2022/12/17 21:04:58;;;;;;;8.63;4.10;;;;;;;20.34;45.68;97969.50;10417458;28;20049;-78
2022/12/17 21:10:18;;;;;;;8.18;4.85;;;;;;;20.32;45.62;97966.28;10439431;28;20065;-78
2022/12/17 21:15:38;;;;;;;6.45;4.00;;;;;;;20.32;45.53;97968.22;10444318;28;20052;-78
2022/12/17 21:21:20;;;;;;;6.80;4.55;;;;;;;20.29;45.44;97969.63;10420763;28;20053;-79
2022/12/17 21:26:41;;;;;;;5.22;4.28;;;;;;;20.27;45.44;97977.25;10400024;28;20053;-79
2022/12/17 21:32:01;;;;;;;7.68;4.70;;;;;;;20.26;45.16;97988.34;10446119;28;20059;-78
2022/12/17 21:37:21;;;;;;;5.78;4.35;;;;;;;20.23;45.11;97987.06;10405445;28;20045;-79
2022/12/17 21:48:19;;;;;;;5.82;4.22;;;;;;;20.21;45.20;97991.97;10441084;28;20057;-77
2022/12/17 21:53:41;;;;;;;7.32;4.60;;;;;;;20.20;45.45;98000.38;10442394;28;20049;-77
2022/12/17 21:59:01;;;;;;;9.32;4.13;;;;;;;20.19;45.44;98001.47;10395620;28;20049;-78
2022/12/17 22:04:22;;;;;;;8.77;4.43;;;;;;;20.15;45.71;97993.97;10414025;28;20075;-77
2022/12/17 22:09:42;;;;;;;12.93;5.65;;;;;;;20.15;45.89;98001.28;10407099;28;20523;-77
2022/12/17 22:15:02;;;;;;;13.45;5.15;;;;;;;20.13;45.87;98014.28;10405797;28;20505;-77
2022/12/17 22:20:23;;;;;;;11.90;5.25;;;;;;;20.09;45.86;98015.97;10432078;28;20052;-77
2022/12/17 22:25:43;;;;;;;12.00;4.85;;;;;;;20.09;45.97;98015.97;10427646;28;20052;-78
2022/12/17 22:36:45;;;;;;;11.13;5.22;;;;;;;20.04;46.00;98021.50;10425408;28;20053;-77
2022/12/17 22:47:44;;;;;;;13.77;5.60;;;;;;;19.99;45.96;98035.91;10440055;28;20412;-77
2022/12/17 22:53:03;;;;;;;13.40;4.97;;;;;;;19.98;45.73;98030.81;10390098;28;20049;-77
2022/12/17 22:58:23;;;;;;;13.00;5.47;;;;;;;19.95;45.42;98032.19;10445006;28;20053;-78
2022/12/17 23:03:43;;;;;;;13.10;5.43;;;;;;;19.92;45.57;98030.88;10454540;28;20108;-77
2022/12/17 23:09:03;;;;;;;14.57;5.65;;;;;;;19.92;45.52;98030.09;10447189;28;20044;-77
2022/12/17 23:14:22;;;;;;;13.07;5.70;;;;;;;19.90;45.67;98030.38;10423402;28;20053;-78
2022/12/17 23:19:42;;;;;;;12.18;5.07;;;;;;;19.88;45.35;98037.19;10407831;28;20065;-77
2022/12/17 23:25:01;;;;;;;12.73;5.80;;;;;;;19.86;45.40;98053.72;10418732;28;20057;-77
2022/12/17 23:30:21;;;;;;;12.20;5.32;;;;;;;19.84;45.36;98052.41;10407918;28;20057;-77
2022/12/17 23:35:45;;;;;;;11.88;5.40;;;;;;;19.82;45.45;98050.00;10425323;28;20049;-78
2022/12/17 23:41:11;;;;;;;8.75;4.80;;;;;;;19.79;45.63;98050.56;10419835;28;20049;-78
2022/12/17 23:46:31;;;;;;;11.15;5.22;;;;;;;19.76;45.52;98056.59;10453074;28;20049;-78
2022/12/17 23:51:50;;;;;;;9.30;4.95;;;;;;;19.74;45.28;98056.88;10440486;28;20049;-77
2022/12/17 23:57:10;;;;;;;11.93;5.35;;;;;;;19.73;45.18;98073.38;10428906;28;20048;-78
